Time;durP1;ratioP1;P1;durP2;ratioP2;P2;SDS_P1;SDS_P2;PMS_P1;PMS_P2;Temp;Humidity;BMP_temperature;BMP_pressure;BME280_temperature;BME280_humidity;BME280_pressure;Samples;Min_cycle;Max_cycle;Signal;HPM_P1;HPM_P2
2022/02/07 00:01:46;;;;;;;13.30;2.50;;;4.00;99.90;;;;;;6218649;22;20058;-80
2022/02/07 00:04:17;;;;;;;9.23;2.23;;;4.00;99.90;;;;;;6194150;22;20050;-79
2022/02/07 00:06:43;;;;;;;9.80;2.17;;;3.90;99.90;;;;;;6170614;22;20045;-80
2022/02/07 00:09:09;;;;;;;10.87;2.03;;;3.90;99.90;;;;;;6168094;22;20409;-78
2022/02/07 00:11:35;;;;;;;12.23;2.40;;;3.80;99.90;;;;;;6217667;22;20077;-81
2022/02/07 00:14:01;;;;;;;10.20;1.83;;;3.80;99.90;;;;;;6168241;22;20016;-78
2022/02/07 00:16:31;;;;;;;11.57;1.97;;;3.80;99.90;;;;;;6193224;22;20015;-79
2022/02/07 00:18:58;;;;;;;10.30;2.20;;;3.80;99.90;;;;;;6243734;22;20012;-79
2022/02/07 00:21:24;;;;;;;10.40;1.77;;;3.80;99.90;;;;;;6192507;22;20383;-79
2022/02/07 00:23:50;;;;;;;12.53;2.30;;;3.70;99.90;;;;;;6218158;22;20114;-79
2022/02/07 00:26:17;;;;;;;7.90;1.80;;;3.70;99.90;;;;;;6216259;22;20057;-79
2022/02/07 00:28:43;;;;;;;9.73;1.80;;;3.70;99.90;;;;;;6168856;22;20474;-79
2022/02/07 00:31:09;;;;;;;9.63;1.57;;;3.70;99.90;;;;;;6167966;22;20357;-79
2022/02/07 00:33:35;;;;;;;10.07;1.70;;;3.60;99.90;;;;;;6216980;22;20090;-78
2022/02/07 00:36:01;;;;;;;8.77;2.00;;;3.70;99.90;;;;;;6192720;22;20414;-80
2022/02/07 00:38:31;;;;;;;11.73;2.17;;;3.60;99.90;;;;;;6218116;22;20022;-79
2022/02/07 00:41:16;;;;;;;9.47;2.00;;;3.60;99.90;;;;;;6219381;22;20027;-79
2022/02/07 00:43:44;;;;;;;12.03;2.70;;;3.70;99.90;;;;;;6197866;22;20026;-79
2022/02/07 00:46:13;;;;;;;14.47;2.87;;;3.70;99.90;;;;;;6193205;22;20106;-79
2022/02/07 00:48:40;;;;;;;13.03;2.57;;;3.80;99.90;;;;;;6243572;22;20012;-80
2022/02/07 00:51:07;;;;;;;14.30;3.17;;;3.80;99.90;;;;;;6217928;22;20016;-79
2022/02/07 00:53:33;;;;;;;13.50;3.00;;;3.80;99.90;;;;;;6242910;22;20012;-79
2022/02/07 00:56:01;;;;;;;12.93;3.40;;;3.80;99.90;;;;;;6168478;22;20027;-79
2022/02/07 00:58:30;;;;;;;16.40;3.13;;;3.80;99.90;;;;;;6192861;22;20389;-79
2022/02/07 01:00:56;;;;;;;13.27;2.83;;;3.80;99.90;;;;;;6217827;22;20345;-78
2022/02/07 01:03:23;;;;;;;20.53;4.40;;;3.80;99.90;;;;;;6192089;22;20034;-79
2022/02/07 01:05:49;;;;;;;19.80;4.13;;;3.80;99.90;;;;;;6243276;22;20027;-78
2022/02/07 01:08:19;;;;;;;17.87;3.40;;;3.90;99.90;;;;;;6243425;22;20019;-80
2022/02/07 01:51:31;;;;;;;13.83;2.73;;;4.10;99.90;;;;;;6197856;22;20098;-80
2022/02/07 01:56:33;;;;;;;14.30;3.00;;;4.10;99.90;;;;;;6198147;22;20111;-78
2022/02/07 01:58:59;;;;;;;12.63;3.23;;;4.20;99.90;;;;;;6194821;22;20375;-79
2022/02/07 02:01:25;;;;;;;15.13;3.47;;;4.20;99.90;;;;;;6219412;22;20098;-79
2022/02/07 02:03:50;;;;;;;15.67;3.30;;;4.30;99.90;;;;;;6194556;22;20015;-79
2022/02/07 02:06:16;;;;;;;14.83;2.93;;;4.20;99.90;;;;;;6193991;22;20015;-81
2022/02/07 02:08:42;;;;;;;13.70;3.07;;;4.20;99.90;;;;;;6219765;22;20024;-80
2022/02/07 02:11:08;;;;;;;13.00;2.50;;;4.20;99.90;;;;;;6169605;22;20317;-79
2022/02/07 02:14:09;;;;;;;13.63;2.87;;;4.20;99.90;;;;;;6193529;22;20015;-79
2022/02/07 02:34:37;;;;;;;13.63;2.53;;;4.40;99.90;;;;;;6222680;22;20020;-74
2022/02/07 02:46:48;;;;;;;13.43;3.13;;;4.60;99.90;;;;;;6222124;22;20023;-80
2022/02/07 02:49:14;;;;;;;15.47;2.77;;;4.60;99.90;;;;;;6219644;22;20058;-74
2022/02/07 02:51:40;;;;;;;16.33;3.40;;;4.60;99.90;;;;;;6217935;22;20019;-79
2022/02/07 02:54:06;;;;;;;19.77;3.40;;;4.70;99.90;;;;;;6242591;22;20019;-80
2022/02/07 02:56:33;;;;;;;15.80;3.73;;;4.80;99.90;;;;;;6218238;22;20693;-77
2022/02/07 02:58:59;;;;;;;18.70;3.70;;;4.70;99.90;;;;;;6218958;22;20024;-79
2022/02/07 03:01:25;;;;;;;20.77;4.00;;;4.80;99.90;;;;;;6190669;22;20023;-81
2022/02/07 03:03:51;;;;;;;18.37;3.97;;;4.80;99.90;;;;;;6195295;22;20012;-80
2022/02/07 03:06:17;;;;;;;17.40;3.70;;;4.80;99.90;;;;;;6169392;22;20016;-80
2022/02/07 03:08:43;;;;;;;21.87;4.07;;;4.70;99.90;;;;;;6219594;22;20020;-80
2022/02/07 03:11:16;;;;;;;21.70;4.83;;;4.70;99.90;;;;;;6219789;22;20154;-80
2022/02/07 03:13:51;;;;;;;23.83;4.57;;;4.60;99.90;;;;;;6172564;22;20824;-80
2022/02/07 03:16:38;;;;;;;21.67;4.90;;;4.70;99.90;;;;;;6244717;22;20020;-81
2022/02/07 03:19:16;;;;;;;21.03;4.30;;;4.70;99.90;;;;;;6219825;22;20030;-79
2022/02/07 03:21:43;;;;;;;25.37;5.33;;;4.80;99.90;;;;;;6245321;22;20244;-80
2022/02/07 03:24:09;;;;;;;24.07;6.27;;;4.80;99.90;;;;;;6243985;22;20081;-80
2022/02/07 03:26:38;;;;;;;22.87;4.47;;;4.80;99.90;;;;;;6217840;22;20027;-81
2022/02/07 03:29:05;;;;;;;23.07;4.87;;;4.80;99.90;;;;;;6217813;22;20448;-80
2022/02/07 03:31:31;;;;;;;24.73;4.90;;;4.80;99.90;;;;;;6243706;22;20126;-79
2022/02/07 03:33:57;;;;;;;23.33;4.63;;;4.80;99.90;;;;;;6219846;22;20456;-76
2022/02/07 03:36:31;;;;;;;28.43;5.50;;;4.80;99.90;;;;;;6193723;22;20012;-75
2022/02/07 03:39:00;;;;;;;23.70;4.70;;;4.70;99.90;;;;;;6219527;22;20099;-76
2022/02/07 03:41:27;;;;;;;25.48;5.53;;;4.80;99.90;;;;;;6243986;22;20023;-75
2022/02/07 03:43:53;;;;;;;25.73;6.03;;;4.70;99.90;;;;;;6219524;22;20026;-76
2022/02/07 03:46:19;;;;;;;21.63;4.67;;;4.60;99.90;;;;;;6219181;22;20106;-79
2022/02/07 03:48:45;;;;;;;24.30;4.93;;;4.60;99.90;;;;;;6219246;22;20234;-77
2022/02/07 03:51:11;;;;;;;19.27;4.23;;;4.60;99.90;;;;;;6194648;22;20018;-77
2022/02/07 03:53:37;;;;;;;20.77;4.10;;;4.70;99.90;;;;;;6217653;22;20396;-79
2022/02/07 03:56:04;;;;;;;19.00;4.50;;;4.70;99.90;;;;;;6245022;22;20325;-77
2022/02/07 03:58:30;;;;;;;20.37;4.37;;;4.80;99.90;;;;;;6217802;22;20450;-77
2022/02/07 04:00:57;;;;;;;22.17;3.97;;;4.80;99.90;;;;;;6244220;22;20072;-79
2022/02/07 04:03:28;;;;;;;24.13;5.20;;;4.80;99.90;;;;;;6219687;22;20011;-77
2022/02/07 04:06:07;;;;;;;26.90;5.13;;;4.80;99.90;;;;;;6171205;22;20015;-78
2022/02/07 04:08:37;;;;;;;24.10;4.80;;;4.80;99.90;;;;;;6218783;22;20020;-78
2022/02/07 04:13:48;;;;;;;28.60;4.87;;;4.80;99.90;;;;;;6198989;22;20020;-79
2022/02/07 04:16:14;;;;;;;25.50;5.43;;;4.80;99.90;;;;;;6195507;22;20051;-78
2022/02/07 04:21:18;;;;;;;20.27;4.83;;;4.80;99.90;;;;;;6221092;22;20107;-78
2022/02/07 04:23:44;;;;;;;24.10;4.90;;;4.80;99.90;;;;;;6193989;22;20051;-78
2022/02/07 04:26:09;;;;;;;20.30;4.73;;;4.80;99.90;;;;;;6194081;22;20020;-80
2022/02/07 04:28:35;;;;;;;30.10;5.57;;;4.80;99.90;;;;;;6168881;22;20153;-79
2022/02/07 04:31:01;;;;;;;25.53;5.03;;;4.90;99.90;;;;;;6194289;22;20090;-79
2022/02/07 04:33:30;;;;;;;22.87;4.63;;;4.90;99.90;;;;;;6239004;23;20016;-79
2022/02/07 04:35:56;;;;;;;18.40;5.03;;;4.90;99.90;;;;;;6238833;23;20024;-79
2022/02/07 04:38:21;;;;;;;21.87;5.30;;;5.00;99.90;;;;;;6213928;23;20023;-79
2022/02/07 04:40:47;;;;;;;21.53;5.80;;;5.00;99.90;;;;;;6188123;23;20044;-80
2022/02/07 04:43:16;;;;;;;22.30;4.60;;;5.00;99.90;;;;;;6213673;23;20028;-80
2022/02/07 04:46:11;;;;;;;26.40;5.43;;;5.00;99.90;;;;;;6212764;23;20031;-79
2022/02/07 04:54:14;;;;;;;23.73;6.00;;;5.10;99.90;;;;;;6237740;23;20024;-80
2022/02/07 05:02:38;;;;;;;31.47;5.47;;;5.30;99.90;;;;;;6237536;23;20461;-76
2022/02/07 05:15:50;;;;;;;26.17;5.63;;;5.30;99.90;;;;;;6216241;23;20465;-80
2022/02/07 05:18:18;;;;;;;22.20;5.70;;;5.30;99.90;;;;;;6237611;23;20019;-80
2022/02/07 05:20:44;;;;;;;26.27;5.63;;;5.30;99.90;;;;;;6187631;23;20099;-81
2022/02/07 05:23:10;;;;;;;27.83;5.87;;;5.30;99.90;;;;;;6211828;23;20066;-82
2022/02/07 05:25:35;;;;;;;25.87;5.43;;;5.30;99.90;;;;;;6212569;23;20020;-81
2022/02/07 05:28:01;;;;;;;27.23;5.73;;;5.30;99.90;;;;;;6211823;23;20020;-81
2022/02/07 05:30:30;;;;;;;22.80;5.50;;;5.30;99.90;;;;;;6212599;23;20020;-81
2022/02/07 05:32:56;;;;;;;34.80;6.77;;;5.30;99.90;;;;;;6239287;22;20016;-80
2022/02/07 05:35:21;;;;;;;32.57;6.23;;;5.50;99.90;;;;;;6191685;22;20502;-79
2022/02/07 05:37:47;;;;;;;19.97;4.03;;;5.30;99.90;;;;;;6217076;22;20113;-79
2022/02/07 05:40:26;;;;;;;10.60;2.23;;;5.30;99.90;;;;;;6192415;22;20440;-80
2022/02/07 05:42:52;;;;;;;9.47;2.10;;;5.30;99.90;;;;;;6217355;22;20027;-79
2022/02/07 05:45:17;;;;;;;6.07;1.37;;;5.10;99.90;;;;;;6217898;22;20259;-81
2022/02/07 05:47:43;;;;;;;8.63;1.47;;;5.00;99.90;;;;;;6219432;22;20023;-80
2022/02/07 05:50:09;;;;;;;8.50;1.67;;;4.90;99.90;;;;;;6217809;22;20015;-79
2022/02/07 05:52:38;;;;;;;8.13;2.23;;;4.70;99.90;;;;;;6218499;22;20019;-78
2022/02/07 05:55:04;;;;;;;10.00;1.87;;;4.60;99.90;;;;;;6192169;22;20019;-80
2022/02/07 05:57:30;;;;;;;8.83;2.17;;;4.50;99.90;;;;;;6218457;22;20436;-80
2022/02/07 05:59:56;;;;;;;9.77;2.03;;;4.50;99.90;;;;;;6193167;22;20026;-79
2022/02/07 06:02:22;;;;;;;11.00;2.63;;;4.40;99.90;;;;;;6191374;22;20019;-79
2022/02/07 06:04:48;;;;;;;8.80;1.83;;;4.30;99.90;;;;;;6191234;22;20122;-79
2022/02/07 06:07:13;;;;;;;12.33;2.57;;;4.30;99.90;;;;;;6190454;22;20038;-79
2022/02/07 06:09:39;;;;;;;10.97;2.50;;;4.20;99.90;;;;;;6166931;22;20016;-79
2022/02/07 06:12:07;;;;;;;14.27;2.80;;;4.10;99.90;;;;;;6240998;22;20118;-79
2022/02/07 06:14:32;;;;;;;12.47;2.53;;;4.10;99.90;;;;;;6217762;22;20448;-79
2022/02/07 06:16:58;;;;;;;15.67;3.20;;;4.20;99.90;;;;;;6191992;22;20012;-79
2022/02/07 06:19:24;;;;;;;15.20;3.10;;;4.10;99.90;;;;;;6242381;22;20016;-80
2022/02/07 06:21:52;;;;;;;17.17;2.90;;;4.10;99.90;;;;;;6242125;22;20047;-80
2022/02/07 06:24:18;;;;;;;14.93;3.30;;;4.10;99.90;;;;;;6216755;22;20105;-80
2022/02/07 06:26:44;;;;;;;19.67;4.30;;;4.20;99.90;;;;;;6216404;22;20074;-80
2022/02/07 06:29:09;;;;;;;16.07;3.43;;;4.30;99.90;;;;;;6192454;22;20464;-80
2022/02/07 06:31:35;;;;;;;18.33;3.57;;;4.30;99.90;;;;;;6192391;22;20449;-80
2022/02/07 06:34:01;;;;;;;20.50;4.17;;;4.40;99.90;;;;;;6243784;22;20030;-80
2022/02/07 06:36:30;;;;;;;17.00;3.23;;;4.40;99.90;;;;;;6218297;22;20531;-80
2022/02/07 06:38:57;;;;;;;14.50;3.87;;;4.30;99.90;;;;;;6218838;22;20055;-80
2022/02/07 06:41:26;;;;;;;19.33;4.38;;;4.50;99.90;;;;;;6195277;22;20457;-80
2022/02/07 06:43:52;;;;;;;17.37;3.90;;;4.60;99.90;;;;;;6218495;22;20034;-79
2022/02/07 06:46:18;;;;;;;17.10;3.60;;;4.60;99.90;;;;;;6218580;22;20024;-80
2022/02/07 06:48:44;;;;;;;18.73;3.90;;;4.70;99.90;;;;;;6243590;22;20440;-80
2022/02/07 06:51:10;;;;;;;23.57;4.30;;;4.70;99.90;;;;;;6190572;22;20019;-80
2022/02/07 06:53:35;;;;;;;21.17;4.27;;;4.60;99.90;;;;;;6217168;22;20024;-80
2022/02/07 06:56:02;;;;;;;15.63;4.00;;;4.60;99.90;;;;;;6238252;22;20449;-80
2022/02/07 06:58:28;;;;;;;21.50;4.97;;;4.60;99.90;;;;;;6213419;22;20020;-80
2022/02/07 07:00:54;;;;;;;19.07;8.43;;;4.60;99.90;;;;;;6189478;22;20027;-79
2022/02/07 07:03:21;;;;;;;16.40;4.33;;;4.60;99.90;;;;;;6214402;22;20020;-80
2022/02/07 07:05:50;;;;;;;16.93;4.27;;;4.50;99.90;;;;;;6241266;22;20316;-80
2022/02/07 07:08:16;;;;;;;20.47;4.30;;;4.50;99.90;;;;;;6192020;22;20012;-80
2022/02/07 07:10:44;;;;;;;18.03;4.20;;;4.50;99.90;;;;;;6166355;22;20112;-80
2022/02/07 07:13:13;;;;;;;20.33;3.97;;;4.40;99.90;;;;;;6191051;22;20090;-80
2022/02/07 07:15:53;;;;;;;23.13;4.88;;;4.40;99.90;;;;;;6240429;22;20019;-80
2022/02/07 07:18:22;;;;;;;14.83;3.27;;;4.30;99.90;;;;;;6216159;22;20094;-80
2022/02/07 07:20:48;;;;;;;20.90;4.53;;;4.20;99.90;;;;;;6191130;22;20456;-80
2022/02/07 07:23:14;;;;;;;18.90;3.80;;;4.20;99.90;;;;;;6191209;22;20016;-80
2022/02/07 07:25:45;;;;;;;15.83;3.37;;;4.10;99.90;;;;;;6189140;22;20093;-80
2022/02/07 07:28:14;;;;;;;15.83;4.20;;;4.10;99.90;;;;;;6192009;22;20016;-79
2022/02/07 07:30:47;;;;;;;19.23;3.90;;;4.10;99.90;;;;;;6241620;22;20856;-80
2022/02/07 07:33:17;;;;;;;22.30;4.27;;;4.10;99.90;;;;;;6241306;22;20063;-80
2022/02/07 07:35:43;;;;;;;17.83;4.20;;;4.00;99.90;;;;;;6192646;22;20020;-80
2022/02/07 07:38:09;;;;;;;21.10;4.47;;;4.10;99.90;;;;;;6193628;22;20102;-80
2022/02/07 07:40:36;;;;;;;20.60;4.53;;;4.00;99.90;;;;;;6217135;22;20019;-80
2022/02/07 07:43:05;;;;;;;22.73;5.40;;;4.00;99.90;;;;;;6191293;22;20027;-80
2022/02/07 07:45:33;;;;;;;25.73;4.80;;;4.00;99.90;;;;;;6214312;22;20026;-80
2022/02/07 07:48:09;;;;;;;23.47;4.77;;;4.10;99.90;;;;;;6217576;22;20460;-80
2022/02/07 07:50:48;;;;;;;21.17;4.80;;;4.10;99.90;;;;;;6193494;22;20019;-79
2022/02/07 07:53:24;;;;;;;26.23;4.80;;;4.10;99.90;;;;;;6194750;22;20016;-80
2022/02/07 08:03:53;;;;;;;24.03;6.07;;;4.40;99.90;;;;;;6238263;22;20027;-81
2022/02/07 08:06:28;;;;;;;23.80;5.20;;;4.50;99.90;;;;;;6164690;22;20073;-80
2022/02/07 08:11:33;;;;;;;32.17;5.63;;;4.50;99.90;;;;;;6218204;22;20027;-80
2022/02/07 08:14:00;;;;;;;29.23;6.07;;;4.60;99.90;;;;;;6217222;22;20067;-80
2022/02/07 08:16:26;;;;;;;32.87;6.23;;;4.60;99.90;;;;;;6242238;22;20015;-80
2022/02/07 08:18:54;;;;;;;28.83;6.70;;;4.70;99.90;;;;;;6240405;22;20125;-82
2022/02/07 08:21:20;;;;;;;23.13;5.77;;;4.80;99.90;;;;;;6215328;22;20444;-81
2022/02/07 08:23:46;;;;;;;22.57;5.43;;;4.90;99.90;;;;;;6190898;22;20020;-81
2022/02/07 08:26:12;;;;;;;26.07;6.57;;;5.00;99.90;;;;;;6240724;22;20042;-81
2022/02/07 08:28:38;;;;;;;31.03;7.33;;;5.00;99.90;;;;;;6215562;22;20515;-80
2022/02/07 08:31:04;;;;;;;28.90;5.73;;;5.00;99.90;;;;;;6190704;22;20027;-81
2022/02/07 08:33:30;;;;;;;28.63;6.53;;;5.00;99.90;;;;;;6208814;23;20026;-81
2022/02/07 08:35:56;;;;;;;28.43;6.93;;;5.00;99.90;;;;;;6211569;23;20047;-81
2022/02/07 08:38:22;;;;;;;30.97;6.63;;;5.10;99.90;;;;;;6185998;23;20445;-81
2022/02/07 08:40:50;;;;;;;21.07;4.67;;;5.10;99.90;;;;;;6210329;23;20024;-81
2022/02/07 08:43:17;;;;;;;27.20;5.90;;;5.20;99.90;;;;;;6235794;23;20020;-82
2022/02/07 08:45:43;;;;;;;23.67;5.63;;;5.30;99.90;;;;;;6209843;23;20027;-81
2022/02/07 08:48:10;;;;;;;26.17;6.37;;;5.40;99.90;;;;;;6212117;23;20506;-81
2022/02/07 08:50:36;;;;;;;35.57;6.47;;;5.40;99.90;;;;;;6211690;23;20020;-79
2022/02/07 08:53:04;;;;;;;25.70;5.20;;;5.50;99.90;;;;;;6212178;23;20483;-79
2022/02/07 08:55:36;;;;;;;25.07;5.50;;;5.60;99.90;;;;;;6210747;23;20023;-77
2022/02/07 08:58:08;;;;;;;29.10;6.23;;;5.60;99.90;;;;;;6212106;23;20290;-80
2022/02/07 09:05:54;;;;;;;23.83;5.97;;;5.80;99.90;;;;;;6236014;23;20024;-81
2022/02/07 09:08:26;;;;;;;27.53;6.40;;;5.90;99.90;;;;;;6209041;23;20016;-80
2022/02/07 09:10:52;;;;;;;30.73;6.37;;;5.90;99.90;;;;;;6210218;23;20678;-81
2022/02/07 09:13:19;;;;;;;32.33;7.03;;;6.00;99.90;;;;;;6211376;23;20534;-80
2022/02/07 09:16:02;;;;;;;22.27;5.60;;;6.10;99.90;;;;;;6211866;23;20448;-81
2022/02/07 09:18:29;;;;;;;26.00;5.23;;;6.20;99.90;;;;;;6237132;23;20016;-79
2022/02/07 09:20:58;;;;;;;31.83;6.40;;;6.20;99.90;;;;;;6212422;23;20016;-80
2022/02/07 09:23:30;;;;;;;26.10;6.17;;;6.30;99.90;;;;;;6211847;23;20374;-81
2022/02/07 09:25:56;;;;;;;24.50;5.60;;;6.30;99.90;;;;;;6237343;23;20515;-81
2022/02/07 09:28:22;;;;;;;29.23;6.30;;;6.40;99.90;;;;;;6237519;23;20028;-81
2022/02/07 09:30:49;;;;;;;25.67;5.90;;;6.40;99.90;;;;;;6237292;23;20020;-81
2022/02/07 09:33:15;;;;;;;23.93;6.47;;;6.40;99.90;;;;;;6211524;23;20039;-82
2022/02/07 09:35:42;;;;;;;30.97;6.67;;;6.50;99.90;;;;;;6236693;23;20019;-81
2022/02/07 09:38:09;;;;;;;27.42;5.85;;;6.60;99.90;;;;;;6234919;23;20016;-83
2022/02/07 09:40:36;;;;;;;33.07;6.20;;;6.60;99.90;;;;;;6209986;23;20024;-81
2022/02/07 09:43:02;;;;;;;25.93;6.07;;;6.60;99.90;;;;;;6234495;23;20118;-80
2022/02/07 09:45:35;;;;;;;26.30;6.32;;;6.70;99.90;;;;;;6210690;23;20028;-81
2022/02/07 09:48:06;;;;;;;28.00;6.10;;;6.80;99.90;;;;;;6209943;23;20550;-81
2022/02/07 09:50:33;;;;;;;28.87;6.60;;;6.80;99.90;;;;;;6235721;23;20028;-81
2022/02/07 09:52:59;;;;;;;31.90;6.87;;;6.90;99.90;;;;;;6234978;23;20191;-80
2022/02/07 09:55:27;;;;;;;31.97;6.30;;;6.90;99.90;;;;;;6184190;23;20039;-81
2022/02/07 09:57:54;;;;;;;26.20;5.30;;;7.10;99.90;;;;;;6210492;23;20013;-80
2022/02/07 10:00:27;;;;;;;28.83;6.10;;;7.10;99.90;;;;;;6209455;23;20345;-82
2022/02/07 10:03:09;;;;;;;26.90;5.30;;;7.20;99.90;;;;;;6208846;23;20054;-81
2022/02/07 10:05:48;;;;;;;27.70;5.93;;;7.20;99.90;;;;;;6210509;23;20056;-80
2022/02/07 10:08:31;;;;;;;25.88;5.28;;;7.20;99.90;;;;;;6212588;23;20611;-81
2022/02/07 10:17:01;;;;;;;21.45;4.03;;;7.20;99.90;;;;;;6236968;23;20680;-83
2022/02/07 10:19:26;;;;;;;24.93;5.30;;;7.20;99.90;;;;;;6229064;23;20027;-83
2022/02/07 10:22:15;;;;;;;23.10;4.38;;;7.30;99.90;;;;;;6210962;23;20024;-81
2022/02/07 10:45:03;;;;;;;26.52;5.53;;;7.50;99.90;;;;;;6175401;23;20020;-82
2022/02/07 10:47:26;;;;;;;26.20;5.28;;;7.50;99.90;;;;;;6231160;23;20094;-81
2022/02/07 10:50:11;;;;;;;24.42;5.82;;;7.60;99.90;;;;;;6210512;23;20020;-80
2022/02/07 10:52:52;;;;;;;23.35;5.10;;;7.60;99.90;;;;;;6210899;23;20143;-81
2022/02/07 10:55:20;;;;;;;25.27;5.03;;;7.70;99.90;;;;;;6235181;23;20217;-81
2022/02/07 10:57:47;;;;;;;20.90;4.55;;;7.70;99.90;;;;;;6212515;23;20016;-82
2022/02/07 11:00:14;;;;;;;24.92;4.95;;;7.70;99.90;;;;;;6214195;23;20024;-82
2022/02/07 11:05:11;;;;;;;25.65;4.95;;;7.70;99.90;;;;;;6237972;23;20067;-81
2022/02/07 11:07:37;;;;;;;;;;;7.70;99.90;;;;;;6212823;23;20020;-81
2022/02/07 11:18:07;;;;;;;;;;;7.80;99.90;;;;;;6237107;23;20051;-77
2022/02/07 11:25:51;;;;;;;20.00;4.28;;;7.90;99.90;;;;;;6236136;23;20056;-82
2022/02/07 11:28:22;;;;;;;22.02;5.25;;;8.00;99.90;;;;;;6238767;23;20566;-82
2022/02/07 11:30:51;;;;;;;22.40;5.55;;;8.00;99.90;;;;;;6211848;23;20520;-82
2022/02/07 11:34:03;;;;;;;19.73;4.30;;;8.10;99.90;;;;;;6237121;23;20073;-82
2022/02/07 11:36:34;;;;;;;17.63;4.05;;;8.10;99.90;;;;;;6211047;23;20348;-82
2022/02/07 11:39:17;;;;;;;17.55;4.03;;;8.20;99.90;;;;;;6235939;23;20460;-82
2022/02/07 11:42:02;;;;;;;21.60;4.05;;;8.10;99.90;;;;;;6211417;23;20059;-81
2022/02/07 11:44:43;;;;;;;17.88;3.75;;;8.10;99.90;;;;;;6210800;23;20027;-84
2022/02/07 11:47:24;;;;;;;14.32;4.32;;;8.10;99.90;;;;;;6234809;23;20066;-82
2022/02/07 11:49:58;;;;;;;16.35;4.35;;;8.10;99.90;;;;;;6232456;23;20078;-75
2022/02/07 11:52:41;;;;;;;19.55;4.15;;;8.10;99.90;;;;;;6211230;23;20024;-83
2022/02/07 11:55:13;;;;;;;21.05;4.15;;;8.20;99.90;;;;;;6211775;23;20031;-84
2022/02/07 11:57:43;;;;;;;22.30;4.93;;;8.20;99.90;;;;;;6211028;23;20047;-82
2022/02/07 12:00:16;;;;;;;17.58;3.65;;;8.30;99.90;;;;;;6213277;23;20020;-81
2022/02/07 12:02:52;;;;;;;24.13;4.10;;;8.40;99.90;;;;;;6212515;23;20016;-81
2022/02/07 12:05:25;;;;;;;15.80;3.60;;;8.50;99.90;;;;;;6214044;23;20461;-82
2022/02/07 12:08:13;;;;;;;19.83;4.13;;;8.40;99.90;;;;;;6212985;23;20095;-83
2022/02/07 12:11:06;;;;;;;19.98;4.13;;;8.40;99.90;;;;;;6212572;23;20016;-81
2022/02/07 12:13:40;;;;;;;16.17;3.33;;;8.40;99.90;;;;;;6210258;23;20023;-84
2022/02/07 12:16:12;;;;;;;16.40;3.75;;;8.50;99.90;;;;;;6212600;23;20388;-82
2022/02/07 12:18:41;;;;;;;18.05;3.50;;;8.40;99.90;;;;;;6236495;23;20483;-82
2022/02/07 12:21:25;;;;;;;19.70;3.72;;;8.40;99.90;;;;;;6213285;23;20095;-82
2022/02/07 12:23:56;;;;;;;17.88;3.92;;;8.40;99.90;;;;;;6237582;23;20686;-82
2022/02/07 12:26:23;;;;;;;21.63;4.05;;;8.40;99.90;;;;;;6208959;23;20027;-83
2022/02/07 12:28:57;;;;;;;16.48;3.97;;;8.40;99.90;;;;;;6210466;23;20478;-82
2022/02/07 12:31:27;;;;;;;17.48;3.17;;;8.50;99.90;;;;;;6212405;23;20119;-83
2022/02/07 12:34:01;;;;;;;15.57;3.05;;;8.50;99.90;;;;;;6212340;22;20016;-82
2022/02/07 12:36:29;;;;;;;17.40;4.07;;;8.60;99.90;;;;;;6241625;22;20019;-83
2022/02/07 12:38:58;;;;;;;15.45;3.38;;;8.60;99.90;;;;;;6241117;22;20024;-81
2022/02/07 12:41:26;;;;;;;14.45;3.22;;;8.50;99.90;;;;;;6216493;22;20089;-82
2022/02/07 12:43:54;;;;;;;16.98;3.72;;;8.50;99.90;;;;;;6188960;22;20066;-83
2022/02/07 12:46:22;;;;;;;19.50;3.30;;;8.50;99.90;;;;;;6192000;22;20016;-83
2022/02/07 12:48:55;;;;;;;15.85;3.40;;;8.40;99.90;;;;;;6240181;22;20020;-83
2022/02/07 12:51:29;;;;;;;21.33;3.13;;;8.40;99.90;;;;;;6243356;22;20457;-82
2022/02/07 12:53:57;;;;;;;14.80;2.67;;;8.20;99.90;;;;;;6214829;22;20057;-84
2022/02/07 12:56:27;;;;;;;19.80;3.53;;;7.90;99.90;;;;;;6216265;22;20075;-84
2022/02/07 12:58:56;;;;;;;16.67;3.65;;;7.80;99.90;;;;;;6191440;22;20030;-78
2022/02/07 13:01:31;;;;;;;14.02;2.70;;;7.80;99.90;;;;;;6214806;22;20520;-79
2022/02/07 13:04:04;;;;;;;16.10;3.80;;;7.70;99.90;;;;;;6239316;22;20475;-83
2022/02/07 13:06:37;;;;;;;17.85;3.55;;;7.70;99.90;;;;;;6213229;22;20446;-83
2022/02/07 13:09:21;;;;;;;15.80;2.53;;;7.70;99.90;;;;;;6239863;22;20028;-82
2022/02/07 13:12:38;;;;;;;12.50;2.97;;;7.70;99.90;;;;;;6213492;22;20296;-83
2022/02/07 13:14:49;;;;;;;18.60;3.22;;;7.80;99.90;;;;;;6196116;22;20671;-83
2022/02/07 13:17:19;;;;;;;15.43;4.15;;;7.90;99.90;;;;;;6216481;22;20039;-76
2022/02/07 13:19:48;;;;;;;13.27;3.10;;;8.00;99.90;;;;;;6217105;22;20016;-82
2022/02/07 13:22:16;;;;;;;16.55;3.08;;;8.10;99.90;;;;;;6241116;22;20034;-83
2022/02/07 13:24:46;;;;;;;15.85;3.08;;;8.30;99.90;;;;;;6163984;22;20030;-83
2022/02/07 13:27:15;;;;;;;14.07;2.90;;;8.40;99.90;;;;;;6213616;22;20024;-83
2022/02/07 13:29:53;;;;;;;17.50;3.15;;;8.50;99.90;;;;;;6212411;22;20011;-82
2022/02/07 13:32:23;;;;;;;13.90;2.97;;;8.50;99.90;;;;;;6210674;23;20074;-84
2022/02/07 13:35:03;;;;;;;19.85;3.63;;;8.50;99.90;;;;;;6231421;23;20436;-83
2022/02/07 13:37:33;;;;;;;16.00;2.90;;;8.40;99.90;;;;;;6231275;23;20020;-83
2022/02/07 13:40:12;;;;;;;20.17;3.28;;;8.30;99.90;;;;;;6207291;23;20058;-83
2022/02/07 13:42:42;;;;;;;12.50;2.72;;;8.20;99.90;;;;;;6210912;23;20094;-82
2022/02/07 13:45:24;;;;;;;11.88;3.15;;;8.10;99.90;;;;;;6210115;23;20028;-82
2022/02/07 13:48:00;;;;;;;14.63;2.90;;;8.00;99.90;;;;;;6214472;23;20023;-84
2022/02/07 13:50:31;;;;;;;9.55;2.20;;;7.90;99.90;;;;;;6237304;23;20051;-79
2022/02/07 13:53:03;;;;;;;15.73;3.78;;;7.80;99.90;;;;;;6237808;23;20053;-83
2022/02/07 13:55:41;;;;;;;15.65;2.97;;;7.70;99.90;;;;;;6212968;23;20016;-78
2022/02/07 13:58:12;;;;;;;14.00;2.63;;;7.50;99.90;;;;;;6212682;23;20020;-79
2022/02/07 14:01:06;;;;;;;18.33;3.75;;;7.60;99.90;;;;;;6211445;23;20024;-83
2022/02/07 14:03:38;;;;;;;15.65;3.92;;;7.60;99.90;;;;;;6212877;23;20023;-83
2022/02/07 14:06:15;;;;;;;13.77;2.60;;;7.50;99.90;;;;;;6213659;23;20016;-82
2022/02/07 14:08:54;;;;;;;14.23;2.80;;;7.50;99.90;;;;;;6211820;23;20016;-82
2022/02/07 14:11:26;;;;;;;14.93;3.25;;;7.60;99.90;;;;;;6212383;23;20313;-82
2022/02/07 14:13:54;;;;;;;19.77;3.40;;;7.70;99.90;;;;;;6210739;23;20020;-82
2022/02/07 14:16:22;;;;;;;13.88;2.40;;;7.80;99.90;;;;;;6213747;23;20020;-81
2022/02/07 14:18:48;;;;;;;17.10;3.00;;;7.80;99.90;;;;;;6212525;23;20349;-82
2022/02/07 14:21:17;;;;;;;16.42;3.13;;;7.70;99.90;;;;;;6237585;23;20027;-74
2022/02/07 14:23:46;;;;;;;15.07;2.67;;;7.70;99.90;;;;;;6236409;23;20078;-83
2022/02/07 14:26:16;;;;;;;14.65;2.78;;;7.60;99.90;;;;;;6211355;23;20019;-78
2022/02/07 14:28:43;;;;;;;13.68;2.83;;;7.60;99.90;;;;;;6212220;23;20099;-84
2022/02/07 14:31:11;;;;;;;16.17;3.15;;;7.60;99.90;;;;;;6213593;23;20314;-81
2022/02/07 14:33:39;;;;;;;17.33;3.38;;;7.60;99.90;;;;;;6208700;23;20023;-83
2022/02/07 14:36:05;;;;;;;17.80;2.83;;;7.60;99.90;;;;;;6211320;23;20159;-82
2022/02/07 14:38:32;;;;;;;16.98;2.67;;;7.60;99.90;;;;;;6211277;23;20085;-81
2022/02/07 14:41:11;;;;;;;12.70;2.97;;;7.60;99.90;;;;;;6211222;23;20016;-85
2022/02/07 14:43:38;;;;;;;12.50;2.30;;;7.60;99.90;;;;;;6210156;23;20023;-82
2022/02/07 14:46:09;;;;;;;11.98;2.53;;;7.50;99.90;;;;;;6211807;23;20027;-82
2022/02/07 14:48:37;;;;;;;14.82;2.28;;;7.50;99.90;;;;;;6213951;23;20059;-84
2022/02/07 14:51:06;;;;;;;15.07;2.70;;;7.40;99.90;;;;;;6212592;23;20341;-82
2022/02/07 14:53:38;;;;;;;12.02;2.70;;;7.30;99.90;;;;;;6237362;23;20461;-82
2022/02/07 14:56:08;;;;;;;14.70;2.72;;;7.30;99.90;;;;;;6207633;23;20016;-82
2022/02/07 14:58:34;;;;;;;13.90;3.00;;;7.20;99.90;;;;;;6208241;23;20331;-82
2022/02/07 15:01:04;;;;;;;20.63;3.83;;;7.20;99.90;;;;;;6209396;23;20020;-83
2022/02/07 15:03:32;;;;;;;14.25;3.17;;;7.30;99.90;;;;;;6233967;23;20020;-84
2022/02/07 15:06:05;;;;;;;15.82;3.28;;;7.20;99.90;;;;;;6204910;23;20380;-82
2022/02/07 15:08:32;;;;;;;17.00;3.78;;;7.10;99.90;;;;;;6207307;23;20016;-82
2022/02/07 15:11:03;;;;;;;16.13;2.58;;;7.10;99.90;;;;;;6209221;23;20051;-80
2022/02/07 15:13:34;;;;;;;14.77;2.75;;;7.10;99.90;;;;;;6209438;23;20027;-83
2022/02/07 15:16:06;;;;;;;13.07;3.00;;;7.10;99.90;;;;;;6213795;23;20027;-82
2022/02/07 15:18:33;;;;;;;17.92;3.22;;;7.00;99.90;;;;;;6239441;23;20016;-81
2022/02/07 15:21:00;;;;;;;12.30;2.40;;;7.00;99.90;;;;;;6212187;23;20012;-82
2022/02/07 15:23:26;;;;;;;12.00;2.50;;;6.90;99.90;;;;;;6210444;23;20051;-81
2022/02/07 15:25:52;;;;;;;11.48;2.05;;;6.90;99.90;;;;;;6208558;23;20020;-81
2022/02/07 15:28:22;;;;;;;11.65;2.17;;;6.90;99.90;;;;;;6211461;23;20047;-81
2022/02/07 15:30:49;;;;;;;11.15;2.30;;;6.90;99.90;;;;;;6211449;23;20461;-81
2022/02/07 15:33:23;;;;;;;11.87;2.27;;;6.90;99.90;;;;;;6244066;22;20325;-84
2022/02/07 15:35:52;;;;;;;11.98;2.75;;;6.90;99.90;;;;;;6218345;22;20526;-82
2022/02/07 15:38:22;;;;;;;14.63;2.63;;;6.90;99.90;;;;;;6218342;22;20661;-83